Time;durP1;ratioP1;P1;durP2;ratioP2;P2;SDS_P1;SDS_P2;PMS_P1;PMS_P2;Temp;Humidity;BMP_temperature;BMP_pressure;BME280_temperature;BME280_humidity;BME280_pressure;Samples;Min_cycle;Max_cycle;Signal;HPM_P1;HPM_P2
2022/04/25 00:00:41;;;;;;;3.38;1.20;;;11.60;63.50;;;;;;5029126;28;20037;-77
2022/04/25 00:03:07;;;;;;;2.80;1.08;;;11.60;63.40;;;;;;5031468;28;20038;-77
2022/04/25 00:05:33;;;;;;;3.85;1.48;;;11.50;63.70;;;;;;5041676;28;20051;-77
2022/04/25 00:07:59;;;;;;;5.80;2.28;;;11.50;63.30;;;;;;5034573;28;20509;-76
2022/04/25 00:10:26;;;;;;;5.10;1.92;;;11.40;63.40;;;;;;5051969;28;20068;-77
2022/04/25 00:12:52;;;;;;;4.40;1.92;;;11.30;63.80;;;;;;5052539;28;20037;-77
2022/04/25 00:15:18;;;;;;;7.50;2.15;;;11.30;63.80;;;;;;5043117;28;20064;-77
2022/04/25 00:17:44;;;;;;;6.97;1.98;;;11.20;63.70;;;;;;5051210;28;20141;-78
2022/04/25 00:20:10;;;;;;;5.03;1.83;;;11.20;64.00;;;;;;5051890;28;20079;-77
2022/04/25 00:22:37;;;;;;;5.18;1.95;;;11.00;63.80;;;;;;5052435;28;20037;-77
2022/04/25 00:25:04;;;;;;;5.55;2.00;;;10.90;64.20;;;;;;5050393;28;20035;-78
2022/04/25 00:27:30;;;;;;;6.47;1.92;;;10.70;63.90;;;;;;5034279;28;20116;-77
2022/04/25 00:29:57;;;;;;;6.68;2.13;;;10.70;64.60;;;;;;5048557;28;20379;-77
2022/04/25 00:32:23;;;;;;;4.47;1.85;;;10.60;64.70;;;;;;5044627;28;20037;-77
2022/04/25 00:34:50;;;;;;;;;;;10.60;65.00;;;;;;5051615;28;20057;-78
2022/04/25 00:37:16;;;;;;;6.75;1.80;;;10.50;64.10;;;;;;5026822;28;20360;-77
2022/04/25 00:39:42;;;;;;;7.03;2.15;;;10.60;64.90;;;;;;5050934;28;20434;-78
2022/04/25 00:42:09;;;;;;;6.95;2.08;;;10.50;65.10;;;;;;5050420;28;20033;-77
2022/04/25 00:44:35;;;;;;;6.28;2.42;;;10.50;65.40;;;;;;5050906;28;20056;-77
2022/04/25 00:47:02;;;;;;;6.78;2.45;;;10.50;65.40;;;;;;5050837;28;20033;-77
2022/04/25 00:49:28;;;;;;;9.60;3.30;;;10.40;65.50;;;;;;5052043;28;20455;-77
2022/04/25 00:51:54;;;;;;;6.93;2.30;;;10.40;65.60;;;;;;5051606;28;20025;-78
2022/04/25 00:54:22;;;;;;;11.45;3.42;;;10.40;65.80;;;;;;5044506;28;20037;-77
2022/04/25 00:56:49;;;;;;;10.30;3.75;;;10.40;65.90;;;;;;5050376;28;20110;-77
2022/04/25 00:59:34;;;;;;;11.70;3.47;;;10.30;65.90;;;;;;5017680;28;20110;-78
2022/04/25 01:02:00;;;;;;;11.23;3.58;;;10.30;66.10;;;;;;5031582;28;20075;-78
2022/04/25 01:04:27;;;;;;;12.40;3.08;;;10.30;65.90;;;;;;5028608;28;20393;-77
2022/04/25 01:06:53;;;;;;;6.65;2.75;;;10.20;65.30;;;;;;5053558;28;20052;-77
2022/04/25 01:09:19;;;;;;;6.10;2.47;;;10.20;66.00;;;;;;5047676;28;20082;-77
2022/04/25 01:11:46;;;;;;;6.47;2.45;;;10.10;66.10;;;;;;5053806;28;20494;-77
2022/04/25 01:14:31;;;;;;;8.80;2.42;;;10.10;66.40;;;;;;5030053;28;20619;-77
2022/04/25 01:16:57;;;;;;;5.13;2.40;;;10.10;66.60;;;;;;5054101;28;20029;-77
2022/04/25 01:19:23;;;;;;;7.78;2.78;;;10.00;66.40;;;;;;5048312;28;20029;-77
2022/04/25 01:22:17;;;;;;;8.35;2.33;;;10.00;66.50;;;;;;5053593;28;20041;-78
2022/04/25 01:27:28;;;;;;;5.72;2.22;;;9.90;66.40;;;;;;5048370;28;20094;-78
2022/04/25 01:29:54;;;;;;;6.05;2.10;;;9.80;66.70;;;;;;5053925;28;20112;-78
2022/04/25 01:32:23;;;;;;;5.55;2.22;;;9.80;67.00;;;;;;5046084;28;20086;-78
2022/04/25 01:34:50;;;;;;;5.03;1.77;;;9.70;66.70;;;;;;5054055;28;20588;-78
2022/04/25 01:37:18;;;;;;;6.65;2.10;;;9.60;66.20;;;;;;5046330;28;20064;-78
2022/04/25 01:40:04;;;;;;;4.65;1.38;;;9.60;66.80;;;;;;5053671;28;20033;-78
2022/04/25 01:42:30;;;;;;;6.75;1.83;;;9.50;66.90;;;;;;5036902;28;20052;-78
2022/04/25 01:44:56;;;;;;;4.22;1.60;;;9.50;67.10;;;;;;5052186;28;20490;-77
2022/04/25 01:47:22;;;;;;;4.90;1.70;;;9.50;68.10;;;;;;5046157;28;20049;-77
2022/04/25 01:49:49;;;;;;;3.97;1.63;;;9.40;66.30;;;;;;5053638;28;20516;-78
2022/04/25 01:52:31;;;;;;;;;;;9.40;67.10;;;;;;5046483;28;20045;-77
2022/04/25 01:54:59;;;;;;;6.57;2.22;;;9.40;66.60;;;;;;5053597;28;19912;-77
2022/04/25 01:57:26;;;;;;;5.13;1.90;;;9.30;66.90;;;;;;5047063;28;20063;-77
2022/04/25 01:59:52;;;;;;;4.80;2.15;;;9.20;66.40;;;;;;5053550;28;20756;-77
2022/04/25 02:02:18;;;;;;;;;;;9.20;67.10;;;;;;5045918;28;20041;-77
2022/04/25 02:04:45;;;;;;;3.63;1.50;;;9.10;66.40;;;;;;5036670;28;19958;-77
2022/04/25 02:07:12;;;;;;;5.53;1.80;;;9.00;65.90;;;;;;5019681;28;20033;-78
2022/04/25 02:09:39;;;;;;;6.50;2.20;;;8.90;66.90;;;;;;5049122;28;20037;-77
2022/04/25 02:12:06;;;;;;;4.72;1.77;;;8.90;66.70;;;;;;5052549;28;20041;-77
2022/04/25 02:14:33;;;;;;;4.38;1.67;;;8.90;67.20;;;;;;5048318;28;20021;-77
2022/04/25 02:17:00;;;;;;;6.07;1.90;;;8.90;66.60;;;;;;5050859;28;20087;-78
2022/04/25 02:19:28;;;;;;;7.38;1.83;;;8.80;66.50;;;;;;5047542;28;20386;-78
2022/04/25 02:21:55;;;;;;;5.32;2.10;;;8.80;66.90;;;;;;5052451;28;20037;-77
2022/04/25 02:24:21;;;;;;;5.43;2.03;;;8.60;67.20;;;;;;5019755;28;20037;-78
2022/04/25 02:26:49;;;;;;;4.85;1.65;;;8.70;67.40;;;;;;5052447;28;20082;-77
2022/04/25 02:29:18;;;;;;;3.55;1.60;;;8.60;67.20;;;;;;5036224;28;20040;-77
2022/04/25 02:31:44;;;;;;;5.10;1.60;;;8.60;67.20;;;;;;5048144;28;20029;-78
2022/04/25 02:34:10;;;;;;;4.82;1.88;;;8.60;67.20;;;;;;5046495;28;20485;-78
2022/04/25 02:36:37;;;;;;;4.35;2.00;;;8.60;67.30;;;;;;5052361;28;20033;-77
2022/04/25 02:39:03;;;;;;;4.78;1.80;;;8.60;67.40;;;;;;5073692;28;20052;-77
2022/04/25 02:41:29;;;;;;;5.18;1.60;;;8.50;66.90;;;;;;5073397;28;20062;-78
2022/04/25 02:43:56;;;;;;;5.80;1.90;;;8.40;67.30;;;;;;5055990;28;20043;-78
2022/04/25 02:46:22;;;;;;;4.55;1.85;;;8.40;67.50;;;;;;5037721;28;20051;-77
2022/04/25 02:48:48;;;;;;;;;;;8.40;67.10;;;;;;5039806;28;20051;-77
2022/04/25 02:51:16;;;;;;;6.35;1.55;;;8.30;67.10;;;;;;5055638;28;20382;-77
2022/04/25 02:53:43;;;;;;;5.85;2.08;;;8.30;67.00;;;;;;5055909;28;20037;-77
2022/04/25 02:56:10;;;;;;;4.38;1.85;;;8.30;67.80;;;;;;5055251;28;20043;-78
2022/04/25 02:58:39;;;;;;;4.00;1.70;;;8.30;67.20;;;;;;5055759;28;20036;-78
2022/04/25 03:01:07;;;;;;;4.13;1.92;;;8.30;67.90;;;;;;5037708;28;20021;-78
2022/04/25 03:03:35;;;;;;;4.40;1.60;;;8.20;67.90;;;;;;5033799;28;20037;-77
2022/04/25 03:06:04;;;;;;;5.47;2.03;;;8.20;67.90;;;;;;5031745;28;20121;-78
2022/04/25 03:08:32;;;;;;;4.50;1.85;;;8.20;67.90;;;;;;5032350;28;20060;-78
2022/04/25 03:10:58;;;;;;;5.03;1.80;;;8.10;68.00;;;;;;5015247;28;20497;-78
2022/04/25 03:13:24;;;;;;;5.38;1.60;;;8.10;68.10;;;;;;5033582;28;20088;-78
2022/04/25 03:15:52;;;;;;;3.45;1.27;;;8.00;67.70;;;;;;5032786;28;20492;-78
2022/04/25 03:18:19;;;;;;;4.03;1.70;;;8.00;67.70;;;;;;5064133;28;20041;-77
2022/04/25 03:20:48;;;;;;;4.20;1.60;;;7.90;67.70;;;;;;5052039;28;20500;-77
2022/04/25 03:23:16;;;;;;;4.38;1.58;;;7.90;68.00;;;;;;5055428;28;20052;-78
2022/04/25 03:25:42;;;;;;;5.32;1.70;;;7.80;68.10;;;;;;5038020;28;20040;-77
2022/04/25 03:28:08;;;;;;;3.63;1.58;;;7.80;67.90;;;;;;5054799;28;20516;-78
2022/04/25 03:30:35;;;;;;;3.90;1.52;;;7.80;68.50;;;;;;5054549;28;20029;-78
2022/04/25 03:33:01;;;;;;;5.95;2.33;;;7.90;68.30;;;;;;5053823;28;20048;-78
2022/04/25 03:35:27;;;;;;;6.13;1.92;;;7.80;68.20;;;;;;5072507;28;20039;-78
2022/04/25 03:37:54;;;;;;;5.70;1.55;;;7.80;68.30;;;;;;5038425;28;20086;-78
2022/04/25 03:40:20;;;;;;;;;;;7.80;68.20;;;;;;5055065;28;20594;-78
2022/04/25 03:42:47;;;;;;;4.85;1.98;;;7.70;67.90;;;;;;5055181;28;20010;-77
2022/04/25 03:45:18;;;;;;;;;;;7.60;68.20;;;;;;5055048;28;20032;-77
2022/04/25 03:48:04;;;;;;;5.95;2.33;;;7.60;67.70;;;;;;5054472;28;19920;-77
2022/04/25 03:50:33;;;;;;;7.00;3.03;;;7.60;68.20;;;;;;5072169;28;20036;-78
2022/04/25 03:53:08;;;;;;;8.07;2.33;;;7.50;67.80;;;;;;5055319;28;20130;-77
2022/04/25 03:58:21;;;;;;;6.38;2.08;;;7.40;67.80;;;;;;5057322;28;20094;-79
2022/04/25 04:00:48;;;;;;;7.38;2.30;;;7.30;67.20;;;;;;5072240;28;20460;-77
2022/04/25 04:03:17;;;;;;;7.03;2.92;;;7.30;67.40;;;;;;5053579;28;20036;-77
2022/04/25 04:05:45;;;;;;;12.63;2.35;;;7.30;67.20;;;;;;5072087;28;20074;-78
2022/04/25 04:08:11;;;;;;;11.60;3.25;;;7.30;67.70;;;;;;5038038;28;20523;-78
2022/04/25 04:10:37;;;;;;;34.17;12.20;;;7.30;68.00;;;;;;5054110;28;20107;-78
2022/04/25 04:13:05;;;;;;;24.65;7.95;;;7.30;67.90;;;;;;5054582;28;20493;-79
2022/04/25 04:15:32;;;;;;;7.15;2.92;;;7.30;67.30;;;;;;5071993;28;20107;-78
2022/04/25 04:17:58;;;;;;;9.07;2.45;;;7.30;67.30;;;;;;5053619;28;20064;-77
2022/04/25 04:20:25;;;;;;;9.32;2.42;;;7.30;68.00;;;;;;5071950;28;20450;-77
2022/04/25 04:22:51;;;;;;;8.32;3.63;;;7.30;68.20;;;;;;5054398;28;20420;-78
2022/04/25 04:25:17;;;;;;;11.05;4.38;;;7.30;69.10;;;;;;5054243;28;20393;-77
2022/04/25 04:27:44;;;;;;;10.13;4.57;;;7.30;68.10;;;;;;5054174;28;20048;-78
2022/04/25 04:30:12;;;;;;;16.85;8.82;;;7.40;68.20;;;;;;5071915;28;20485;-78
2022/04/25 04:32:40;;;;;;;10.15;3.22;;;7.30;68.00;;;;;;5053144;28;20056;-78
2022/04/25 04:35:10;;;;;;;7.00;3.20;;;7.30;68.00;;;;;;5054308;28;20021;-77
2022/04/25 04:37:38;;;;;;;9.30;3.60;;;7.30;67.60;;;;;;5054321;28;20515;-77
2022/04/25 04:42:51;;;;;;;18.55;3.90;;;7.20;67.80;;;;;;5060798;28;20044;-78
2022/04/25 04:45:18;;;;;;;9.50;3.65;;;7.20;67.70;;;;;;5057775;28;20040;-77
2022/04/25 04:47:44;;;;;;;9.43;3.22;;;7.20;67.10;;;;;;5056990;28;20040;-77
2022/04/25 04:53:00;;;;;;;6.45;2.72;;;7.20;68.20;;;;;;5061074;28;20037;-78
2022/04/25 04:55:27;;;;;;;6.82;2.72;;;7.20;68.30;;;;;;5057520;28;20055;-78
2022/04/25 04:57:55;;;;;;;6.13;2.38;;;7.20;68.30;;;;;;5058019;28;20443;-79
2022/04/25 05:00:23;;;;;;;7.88;3.00;;;7.30;68.30;;;;;;5057621;28;20370;-78
2022/04/25 05:02:49;;;;;;;8.25;3.03;;;7.30;68.30;;;;;;5057054;28;20044;-79
2022/04/25 05:05:15;;;;;;;6.35;2.85;;;7.30;69.10;;;;;;5075213;28;20393;-78
2022/04/25 05:07:42;;;;;;;8.40;3.40;;;7.40;68.80;;;;;;5041161;28;20040;-78
2022/04/25 05:10:09;;;;;;;9.02;3.60;;;7.40;68.80;;;;;;5057224;28;20123;-78
2022/04/25 05:12:54;;;;;;;6.38;2.97;;;7.50;68.70;;;;;;5057475;28;20056;-77
2022/04/25 05:15:21;;;;;;;7.68;2.60;;;7.60;68.60;;;;;;5057202;28;20025;-76
2022/04/25 05:17:48;;;;;;;9.07;3.17;;;7.60;68.80;;;;;;5056634;28;20095;-78
2022/04/25 05:20:15;;;;;;;6.90;2.65;;;7.70;69.20;;;;;;5056969;28;20033;-78
2022/04/25 05:23:02;;;;;;;7.38;3.30;;;7.80;69.20;;;;;;5057402;28;20107;-78
2022/04/25 05:25:29;;;;;;;11.57;3.20;;;7.90;69.40;;;;;;5056888;28;20040;-78
2022/04/25 05:27:56;;;;;;;14.20;5.93;;;8.00;69.20;;;;;;5075412;28;20074;-77
2022/04/25 05:30:24;;;;;;;29.38;9.98;;;8.10;69.20;;;;;;5040097;28;20092;-77
2022/04/25 05:33:10;;;;;;;27.17;12.00;;;8.30;69.40;;;;;;5056162;28;20492;-79
2022/04/25 05:35:37;;;;;;;33.88;11.98;;;8.40;69.70;;;;;;5056918;28;20089;-78
2022/04/25 05:38:07;;;;;;;21.20;8.48;;;8.40;69.50;;;;;;5057102;28;20040;-77
2022/04/25 05:40:33;;;;;;;14.45;5.65;;;8.50;69.90;;;;;;5074485;28;20112;-77
2022/04/25 05:43:04;;;;;;;13.23;5.72;;;8.60;70.10;;;;;;5057132;28;20083;-77
2022/04/25 05:45:30;;;;;;;10.52;3.40;;;8.70;70.40;;;;;;5056620;28;20090;-79
2022/04/25 05:47:58;;;;;;;6.97;3.75;;;8.80;70.30;;;;;;5073878;28;20083;-77
2022/04/25 05:55:55;;;;;;;15.85;9.43;;;9.20;70.00;;;;;;5059235;28;20055;-78
2022/04/25 05:58:21;;;;;;;18.88;9.80;;;9.30;69.90;;;;;;5056848;28;20040;-77
2022/04/25 06:00:47;;;;;;;21.73;7.40;;;9.50;69.90;;;;;;5047115;28;20048;-77
2022/04/25 06:03:13;;;;;;;18.98;7.05;;;9.60;69.80;;;;;;5043319;28;20067;-77
2022/04/25 06:05:39;;;;;;;12.23;5.50;;;9.80;69.90;;;;;;5052881;28;20075;-79
2022/04/25 06:08:06;;;;;;;13.57;5.38;;;9.90;70.60;;;;;;5074558;28;20037;-77
2022/04/25 06:10:32;;;;;;;9.73;3.42;;;10.00;69.00;;;;;;5055916;28;20036;-77
2022/04/25 06:12:59;;;;;;;7.20;3.08;;;10.20;69.50;;;;;;5074480;28;20060;-78
2022/04/25 06:15:25;;;;;;;10.45;2.78;;;10.30;69.30;;;;;;5039473;28;20455;-78
2022/04/25 06:17:53;;;;;;;;;;;10.50;69.60;;;;;;5056127;28;20306;-77
2022/04/25 06:20:19;;;;;;;4.03;1.80;;;10.50;68.90;;;;;;5039102;28;19920;-78
2022/04/25 06:23:03;;;;;;;;;;;10.70;68.80;;;;;;5074725;28;20040;-78
2022/04/25 06:25:30;;;;;;;5.78;2.42;;;10.90;68.20;;;;;;5055902;28;20453;-78
2022/04/25 06:27:58;;;;;;;5.03;1.70;;;11.00;68.10;;;;;;5056293;28;20089;-78
2022/04/25 06:30:28;;;;;;;10.73;4.90;;;11.20;68.10;;;;;;5055749;28;20047;-78
2022/04/25 06:32:54;;;;;;;6.20;3.03;;;11.40;68.10;;;;;;5072972;28;20063;-78
2022/04/25 06:35:21;;;;;;;6.03;2.85;;;11.50;67.90;;;;;;5055723;28;20033;-78
2022/04/25 06:37:48;;;;;;;6.53;2.70;;;11.70;68.50;;;;;;5074096;28;20064;-78
2022/04/25 06:40:14;;;;;;;6.22;2.60;;;11.80;68.20;;;;;;5055498;28;20028;-78
2022/04/25 06:42:40;;;;;;;;;;;12.00;68.30;;;;;;5056437;28;20051;-78
2022/04/25 06:45:08;;;;;;;5.90;2.75;;;12.20;67.70;;;;;;5038937;28;19916;-76
2022/04/25 06:47:35;;;;;;;5.38;2.60;;;12.40;66.80;;;;;;5056037;28;20086;-78
2022/04/25 06:50:01;;;;;;;;;;;12.50;66.20;;;;;;5073272;28;20507;-76
2022/04/25 06:52:27;;;;;;;5.45;2.60;;;12.70;66.00;;;;;;5055320;28;20334;-78
2022/04/25 06:54:53;;;;;;;5.57;2.40;;;12.90;66.10;;;;;;5055753;28;20028;-77
2022/04/25 06:57:19;;;;;;;5.72;2.20;;;13.10;65.50;;;;;;5038525;28;20068;-79
2022/04/25 06:59:45;;;;;;;7.60;2.45;;;13.40;64.60;;;;;;5055610;28;20025;-78
2022/04/25 07:02:13;;;;;;;6.30;2.42;;;13.70;64.10;;;;;;5055096;28;20040;-77
2022/04/25 07:04:40;;;;;;;5.72;1.90;;;14.00;62.90;;;;;;5072042;28;20124;-78
2022/04/25 07:07:06;;;;;;;6.38;2.15;;;14.30;61.40;;;;;;5072860;28;20044;-79
2022/04/25 07:09:32;;;;;;;3.83;1.67;;;14.60;60.80;;;;;;5055411;28;20392;-78
2022/04/25 07:11:59;;;;;;;5.60;2.08;;;14.80;59.50;;;;;;5054799;28;20028;-77
2022/04/25 07:14:27;;;;;;;7.18;1.90;;;15.10;58.90;;;;;;5055463;28;20025;-79
2022/04/25 07:16:56;;;;;;;6.13;1.80;;;15.30;57.90;;;;;;5055129;28;20427;-75
2022/04/25 07:19:23;;;;;;;4.60;1.70;;;15.50;56.90;;;;;;5054769;28;20040;-79
2022/04/25 07:30:05;;;;;;;3.58;1.77;;;16.50;52.10;;;;;;5072870;28;20036;-78
2022/04/25 07:32:32;;;;;;;4.15;1.77;;;16.80;52.10;;;;;;5054789;28;20039;-77
2022/04/25 07:35:03;;;;;;;4.13;1.67;;;17.20;51.00;;;;;;5054316;28;20040;-78
2022/04/25 07:37:33;;;;;;;3.20;1.23;;;17.50;50.30;;;;;;5054564;28;20051;-76
2022/04/25 07:40:00;;;;;;;4.95;1.17;;;17.90;49.00;;;;;;5072722;28;20131;-78
2022/04/25 07:42:26;;;;;;;2.85;1.05;;;18.10;47.10;;;;;;5054511;28;20032;-76
2022/04/25 07:44:52;;;;;;;3.33;1.15;;;18.50;46.60;;;;;;5054768;28;20120;-76
2022/04/25 07:47:18;;;;;;;4.10;1.42;;;18.70;45.60;;;;;;5072331;28;20405;-77
2022/04/25 07:49:45;;;;;;;3.22;1.20;;;18.90;44.00;;;;;;5071650;28;20041;-76
2022/04/25 07:52:11;;;;;;;4.28;1.45;;;19.00;43.30;;;;;;5054356;28;20405;-78
2022/04/25 07:54:37;;;;;;;3.20;1.08;;;19.40;43.50;;;;;;5072886;28;20389;-77
2022/04/25 07:57:06;;;;;;;2.83;1.00;;;19.70;41.40;;;;;;5054264;28;20408;-75
2022/04/25 07:59:34;;;;;;;3.50;1.05;;;20.10;40.00;;;;;;5054568;28;20039;-75
2022/04/25 08:02:01;;;;;;;2.03;0.90;;;20.40;39.10;;;;;;5054336;28;20032;-79
2022/04/25 08:04:29;;;;;;;1.30;0.68;;;20.80;39.50;;;;;;5071614;28;20033;-78
2022/04/25 08:06:55;;;;;;;3.03;0.88;;;21.30;36.80;;;;;;5054052;28;20033;-79
2022/04/25 08:09:21;;;;;;;2.35;1.00;;;21.50;35.80;;;;;;5054565;28;20082;-79
2022/04/25 08:11:47;;;;;;;;;;;21.50;34.60;;;;;;5072515;28;20044;-75
2022/04/25 08:19:42;;;;;;;2.53;1.00;;;22.40;32.90;;;;;;5060481;28;20427;-76
2022/04/25 08:22:10;;;;;;;3.47;0.85;;;22.80;32.60;;;;;;5057979;28;20047;-78
2022/04/25 08:24:37;;;;;;;1.38;0.60;;;23.10;33.30;;;;;;5076379;28;20028;-79
2022/04/25 08:27:05;;;;;;;1.95;0.70;;;23.20;31.40;;;;;;5075845;28;20052;-77
2022/04/25 08:29:32;;;;;;;2.15;0.90;;;23.30;31.80;;;;;;5058511;28;20025;-76
2022/04/25 08:31:59;;;;;;;2.03;0.70;;;23.70;30.80;;;;;;5075776;28;20032;-79
2022/04/25 08:34:25;;;;;;;2.15;0.70;;;23.70;29.30;;;;;;5057446;28;20063;-76
2022/04/25 08:36:51;;;;;;;1.70;0.80;;;24.30;30.00;;;;;;5041435;28;20031;-77
2022/04/25 08:39:19;;;;;;;1.88;0.75;;;24.90;29.70;;;;;;5058135;28;20394;-76
2022/04/25 08:42:07;;;;;;;1.80;0.70;;;25.30;29.40;;;;;;5075536;28;20445;-76
2022/04/25 08:44:33;;;;;;;1.92;0.70;;;25.60;27.70;;;;;;5058199;28;20167;-78
2022/04/25 08:47:00;;;;;;;1.55;0.73;;;26.00;28.10;;;;;;5057723;28;20106;-77
2022/04/25 08:49:27;;;;;;;0.98;0.60;;;26.00;26.70;;;;;;5074947;28;20037;-77
2022/04/25 08:54:42;;;;;;;1.85;0.75;;;26.50;25.80;;;;;;5060737;28;20075;-76
2022/04/25 08:57:08;;;;;;;1.40;0.70;;;26.70;25.90;;;;;;5075409;28;20102;-76
2022/04/25 08:59:36;;;;;;;2.10;0.80;;;26.90;25.40;;;;;;5057793;28;20025;-77
2022/04/25 09:02:03;;;;;;;1.80;0.80;;;27.40;25.50;;;;;;5075251;28;20052;-78
2022/04/25 09:04:30;;;;;;;1.92;0.70;;;28.10;26.10;;;;;;5056807;28;20037;-78
2022/04/25 09:06:56;;;;;;;1.50;0.65;;;28.80;25.30;;;;;;5057170;28;20033;-76
2022/04/25 09:09:22;;;;;;;1.85;0.70;;;29.10;23.40;;;;;;5057733;28;20029;-77
2022/04/25 09:14:33;;;;;;;1.73;0.60;;;29.20;23.40;;;;;;5075514;28;20118;-77
2022/04/25 09:17:03;;;;;;;2.13;0.80;;;29.30;22.70;;;;;;5040242;28;20624;-76
2022/04/25 09:19:30;;;;;;;3.17;0.80;;;29.40;22.80;;;;;;5040215;28;20048;-79
2022/04/25 09:21:56;;;;;;;0.95;0.47;;;29.40;22.40;;;;;;5056836;28;20035;-77
2022/04/25 09:25:02;;;;;;;4.80;0.85;;;29.80;22.30;;;;;;5057438;28;20028;-78
2022/04/25 09:27:28;;;;;;;1.65;0.82;;;30.30;23.20;;;;;;5074686;28;20037;-79
2022/04/25 09:29:54;;;;;;;3.05;1.35;;;30.60;21.90;;;;;;5057261;28;20480;-79
2022/04/25 09:32:31;;;;;;;2.38;0.68;;;30.70;21.10;;;;;;5056793;28;20045;-77
2022/04/25 09:35:02;;;;;;;2.47;0.70;;;31.20;21.90;;;;;;5074236;28;20036;-77
2022/04/25 09:37:48;;;;;;;1.02;0.57;;;31.80;20.50;;;;;;5074855;28;20044;-77
2022/04/25 09:40:21;;;;;;;1.85;0.65;;;31.60;20.40;;;;;;5056682;28;20397;-78
2022/04/25 09:43:21;;;;;;;2.40;0.60;;;31.90;20.40;;;;;;5057272;28;20087;-76
2022/04/25 09:45:47;;;;;;;1.48;0.68;;;33.10;20.70;;;;;;5056569;28;20484;-77
2022/04/25 09:48:32;;;;;;;0.93;0.60;;;34.00;20.30;;;;;;5075204;28;20091;-77
2022/04/25 09:51:17;;;;;;;3.50;0.70;;;34.30;19.40;;;;;;5055320;28;20032;-77
2022/04/25 09:54:03;;;;;;;1.90;0.50;;;34.30;18.80;;;;;;5057022;28;20075;-77
2022/04/25 09:56:31;;;;;;;1.77;0.60;;;34.60;18.40;;;;;;5074339;28;20029;-78
2022/04/25 09:59:15;;;;;;;1.30;0.52;;;33.50;18.10;;;;;;5057040;28;20052;-75
2022/04/25 10:01:43;;;;;;;2.15;0.80;;;33.70;19.60;;;;;;5039664;28;20074;-75
2022/04/25 10:07:15;;;;;;;2.45;0.70;;;32.20;18.70;;;;;;5058936;28;20071;-77
2022/04/25 10:09:44;;;;;;;1.48;0.70;;;31.70;19.40;;;;;;5056501;28;20035;-74
2022/04/25 10:12:10;;;;;;;2.13;0.82;;;32.00;20.00;;;;;;5073950;28;20044;-77
2022/04/25 10:14:37;;;;;;;2.85;0.70;;;33.10;20.00;;;;;;5056514;28;20071;-77
2022/04/25 10:17:04;;;;;;;1.38;0.57;;;32.40;19.50;;;;;;5074268;28;20098;-77
2022/04/25 10:19:30;;;;;;;1.88;0.60;;;32.00;20.10;;;;;;5056464;28;20107;-77
2022/04/25 10:21:56;;;;;;;1.50;0.65;;;33.00;19.30;;;;;;5038250;28;20556;-75
2022/04/25 10:24:23;;;;;;;0.40;0.40;;;34.20;18.20;;;;;;5056359;28;20033;-77
2022/04/25 10:26:52;;;;;;;2.78;0.60;;;35.30;18.20;;;;;;5055760;28;20036;-76
2022/04/25 10:29:25;;;;;;;1.02;0.60;;;35.60;16.50;;;;;;5056202;28;20449;-75
2022/04/25 10:31:59;;;;;;;1.42;0.50;;;33.30;17.00;;;;;;5055799;28;20078;-78
2022/04/25 10:35:05;;;;;;;1.70;0.52;;;31.20;18.90;;;;;;5056202;28;20052;-75
2022/04/25 10:37:50;;;;;;;1.05;0.50;;;30.70;19.30;;;;;;5055365;28;20041;-76
2022/04/25 10:44:10;;;;;;;0.80;0.55;;;30.10;20.30;;;;;;5055357;28;20449;-77
2022/04/25 10:46:24;;;;;;;1.00;0.60;;;33.90;18.40;;;;;;5058208;28;20070;-77
2022/04/25 10:49:12;;;;;;;2.20;0.70;;;34.70;16.70;;;;;;5074112;28;20032;-76
2022/04/25 10:51:42;;;;;;;1.25;0.60;;;34.90;17.70;;;;;;5054812;28;20032;-76
2022/04/25 10:54:09;;;;;;;1.33;0.60;;;35.50;16.00;;;;;;5039079;28;20513;-77
2022/04/25 10:56:35;;;;;;;2.55;0.70;;;36.30;15.80;;;;;;5038513;28;20511;-77
2022/04/25 10:59:38;;;;;;;2.55;0.90;;;37.20;15.90;;;;;;5073943;28;20041;-76
2022/04/25 11:02:44;;;;;;;1.88;0.82;;;37.60;15.10;;;;;;5055148;28;20068;-77
2022/04/25 11:05:10;;;;;;;2.05;0.70;;;37.80;14.90;;;;;;5071977;28;20035;-76
2022/04/25 11:07:38;;;;;;;1.08;0.60;;;38.10;14.20;;;;;;5073306;28;20424;-76
2022/04/25 11:10:06;;;;;;;1.35;0.60;;;38.20;14.80;;;;;;5038554;28;20033;-77
2022/04/25 11:13:10;;;;;;;1.95;0.80;;;36.60;14.90;;;;;;5055352;28;20535;-77
2022/04/25 11:16:33;;;;;;;3.40;1.10;;;37.50;15.60;;;;;;5054970;28;20025;-76
2022/04/25 11:19:21;;;;;;;3.83;1.20;;;37.00;15.60;;;;;;5055373;28;20566;-76
2022/04/25 11:21:50;;;;;;;2.97;0.90;;;36.30;15.50;;;;;;5054629;28;20071;-76
2022/04/25 11:24:30;;;;;;;2.40;0.90;;;37.40;15.50;;;;;;5055213;28;20024;-76
2022/04/25 11:26:59;;;;;;;4.13;1.40;;;39.10;15.10;;;;;;5054606;28;20036;-77
2022/04/25 11:29:26;;;;;;;2.75;1.30;;;40.40;13.60;;;;;;5073245;28;20033;-76
2022/04/25 11:32:35;;;;;;;3.72;1.40;;;41.00;13.00;;;;;;5072512;28;20052;-76
2022/04/25 11:35:03;;;;;;;4.55;1.60;;;39.00;13.90;;;;;;5033342;28;20041;-76
2022/04/25 11:37:32;;;;;;;4.78;1.38;;;36.60;15.20;;;;;;5014335;28;20437;-77
2022/04/25 11:40:20;;;;;;;3.85;1.60;;;37.20;15.00;;;;;;5015250;28;20053;-74
2022/04/25 11:42:46;;;;;;;2.97;1.25;;;37.70;14.00;;;;;;5015340;28;20072;-77
2022/04/25 11:45:12;;;;;;;2.95;1.30;;;37.80;13.90;;;;;;4998259;28;20025;-76
2022/04/25 11:47:38;;;;;;;2.75;1.35;;;38.10;14.20;;;;;;5032970;28;20477;-75
2022/04/25 11:50:10;;;;;;;2.35;1.17;;;38.40;13.90;;;;;;5031698;28;20029;-74
2022/04/25 11:52:49;;;;;;;2.80;1.20;;;38.20;14.00;;;;;;5031902;28;20048;-77
2022/04/25 11:55:31;;;;;;;6.28;2.80;;;38.30;13.90;;;;;;5014838;28;20029;-76
2022/04/25 11:57:57;;;;;;;3.03;1.25;;;36.40;15.20;;;;;;5015175;28;20490;-75
2022/04/25 12:00:26;;;;;;;3.95;1.70;;;34.30;16.00;;;;;;4998168;28;20379;-77
2022/04/25 12:02:53;;;;;;;1.88;1.02;;;32.60;17.10;;;;;;5015072;28;20046;-76
2022/04/25 12:05:39;;;;;;;2.42;1.13;;;31.60;17.90;;;;;;5032325;28;20061;-76
2022/04/25 12:16:39;;;;;;;3.42;1.42;;;30.20;20.50;;;;;;5032175;28;20041;-75
2022/04/25 12:19:24;;;;;;;2.53;1.40;;;31.80;18.50;;;;;;5014907;28;20034;-76
2022/04/25 12:22:01;;;;;;;13.15;2.25;;;33.90;17.60;;;;;;4997140;28;20034;-76
2022/04/25 12:24:27;;;;;;;3.67;1.50;;;35.80;16.20;;;;;;5014831;28;20393;-78
2022/04/25 12:26:53;;;;;;;3.63;1.60;;;36.60;15.20;;;;;;5014575;28;20390;-76
2022/04/25 12:29:19;;;;;;;5.43;1.77;;;36.80;14.30;;;;;;5032266;28;20033;-79
2022/04/25 12:31:47;;;;;;;2.60;1.40;;;36.10;15.90;;;;;;5032116;28;20067;-77
2022/04/25 12:34:16;;;;;;;4.45;1.52;;;36.70;15.30;;;;;;5037750;28;20440;-77
2022/04/25 12:37:03;;;;;;;3.45;1.52;;;37.80;15.10;;;;;;5049802;28;20540;-76
2022/04/25 12:39:29;;;;;;;3.13;1.90;;;39.10;14.40;;;;;;5052301;28;20185;-77
2022/04/25 12:41:58;;;;;;;6.85;1.80;;;40.70;13.60;;;;;;5051777;28;20033;-76
2022/04/25 12:44:26;;;;;;;6.68;1.85;;;41.40;13.50;;;;;;5034365;28;20053;-75
2022/04/25 12:47:15;;;;;;;3.85;1.75;;;40.30;12.70;;;;;;5048402;28;20056;-76
2022/04/25 12:52:26;;;;;;;6.03;1.90;;;38.60;13.60;;;;;;5030077;28;20202;-76
2022/04/25 12:54:54;;;;;;;3.88;1.80;;;36.50;14.90;;;;;;5052119;28;20497;-75
2022/04/25 12:57:50;;;;;;;6.30;2.08;;;37.40;14.60;;;;;;5051595;28;20098;-76
2022/04/25 13:00:17;;;;;;;2.70;1.50;;;38.00;14.10;;;;;;5027031;28;20036;-77
2022/04/25 13:02:43;;;;;;;2.88;1.70;;;38.20;14.60;;;;;;5050491;28;20055;-75
2022/04/25 13:07:56;;;;;;;3.58;1.83;;;38.60;14.20;;;;;;5053687;28;20059;-75
2022/04/25 13:10:23;;;;;;;4.57;1.95;;;38.70;13.10;;;;;;5055113;28;20037;-75
2022/04/25 13:12:53;;;;;;;2.50;1.45;;;38.00;14.00;;;;;;5051920;28;20041;-74
2022/04/25 13:15:25;;;;;;;2.05;1.23;;;36.10;14.40;;;;;;5037395;28;20086;-75
2022/04/25 13:17:54;;;;;;;3.05;1.58;;;36.50;14.70;;;;;;5055751;28;20037;-76
2022/04/25 13:20:23;;;;;;;3.28;1.58;;;37.30;14.40;;;;;;5055034;28;20671;-77
2022/04/25 13:22:50;;;;;;;4.28;1.98;;;37.70;14.30;;;;;;5050508;28;20044;-75
2022/04/25 13:28:03;;;;;;;3.67;1.30;;;38.40;14.00;;;;;;5054240;28;20056;-76
2022/04/25 13:30:29;;;;;;;3.72;1.38;;;38.70;13.80;;;;;;5037039;28;20039;-74
2022/04/25 13:32:56;;;;;;;6.38;1.23;;;36.90;14.20;;;;;;5055304;28;20045;-74
2022/04/25 13:35:24;;;;;;;3.55;1.35;;;34.90;15.30;;;;;;5056757;28;20028;-74
2022/04/25 13:37:50;;;;;;;2.22;1.20;;;33.70;16.00;;;;;;5074235;28;20037;-76
2022/04/25 13:40:18;;;;;;;2.85;1.10;;;31.90;17.50;;;;;;5056772;28;20028;-76
2022/04/25 13:42:45;;;;;;;2.47;1.08;;;32.70;17.90;;;;;;5057412;28;20040;-77
2022/04/25 13:45:12;;;;;;;2.97;1.10;;;34.30;16.90;;;;;;5074584;28;20024;-75
2022/04/25 13:47:40;;;;;;;3.80;1.10;;;33.00;17.60;;;;;;5074959;28;20040;-75
2022/04/25 13:50:07;;;;;;;2.63;1.30;;;32.00;18.10;;;;;;5074492;28;20058;-77
2022/04/25 13:52:33;;;;;;;2.15;1.10;;;32.70;17.90;;;;;;5074091;28;20047;-77
2022/04/25 13:54:59;;;;;;;1.67;0.90;;;34.20;17.00;;;;;;5056821;28;20493;-77
2022/04/25 13:57:25;;;;;;;4.25;0.98;;;35.00;16.40;;;;;;5074343;28;20051;-74
2022/04/25 13:59:51;;;;;;;2.55;1.13;;;35.30;15.60;;;;;;5074717;28;20522;-74
2022/04/25 14:05:02;;;;;;;2.05;1.00;;;36.00;15.20;;;;;;5074606;28;20043;-75
2022/04/25 14:07:28;;;;;;;2.17;1.00;;;35.70;14.20;;;;;;5055388;28;20033;-77